sensor_id;sensor_type;location;lat;lon;timestamp;pressure;altitude;pressure_sealevel;temperature;humidity
85746;BME280;76186;47.590;19.194;2024-02-14T00:00:03;100291.00;;;0.37;87.30
85746;BME280;76186;47.590;19.194;2024-02-14T00:01:04;100282.97;;;0.37;86.44
85746;BME280;76186;47.590;19.194;2024-02-14T00:02:04;100282.50;;;0.40;86.70
85746;BME280;76186;47.590;19.194;2024-02-14T00:03:06;100285.34;;;0.45;86.78
85746;BME280;76186;47.590;19.194;2024-02-14T00:04:07;100292.63;;;0.38;86.59
85746;BME280;76186;47.590;19.194;2024-02-14T00:05:08;100292.59;;;0.26;87.13
85746;BME280;76186;47.590;19.194;2024-02-14T00:06:10;100292.31;;;0.16;86.69
85746;BME280;76186;47.590;19.194;2024-02-14T00:07:12;100287.91;;;0.22;87.21
85746;BME280;76186;47.590;19.194;2024-02-14T00:08:12;100289.94;;;0.38;86.55
85746;BME280;76186;47.590;19.194;2024-02-14T00:09:15;100291.44;;;0.34;86.92
85746;BME280;76186;47.590;19.194;2024-02-14T00:10:16;100285.94;;;0.29;86.85
85746;BME280;76186;47.590;19.194;2024-02-14T00:11:17;100296.78;;;0.64;86.52
85746;BME280;76186;47.590;19.194;2024-02-14T00:12:17;100296.66;;;0.29;86.86
85746;BME280;76186;47.590;19.194;2024-02-14T00:13:18;100290.97;;;0.07;87.02
85746;BME280;76186;47.590;19.194;2024-02-14T00:14:18;100296.09;;;0.09;87.52
85746;BME280;76186;47.590;19.194;2024-02-14T00:15:22;100295.19;;;0.15;87.24
85746;BME280;76186;47.590;19.194;2024-02-14T00:16:24;100301.56;;;0.32;86.88
85746;BME280;76186;47.590;19.194;2024-02-14T00:17:24;100297.72;;;0.28;86.97
85746;BME280;76186;47.590;19.194;2024-02-14T00:18:25;100294.03;;;0.41;86.67
85746;BME280;76186;47.590;19.194;2024-02-14T00:19:26;100299.91;;;0.31;86.59
85746;BME280;76186;47.590;19.194;2024-02-14T00:20:27;100301.00;;;0.12;86.45
85746;BME280;76186;47.590;19.194;2024-02-14T00:21:27;100301.75;;;0.19;87.25
85746;BME280;76186;47.590;19.194;2024-02-14T00:22:28;100294.47;;;0.38;86.71
85746;BME280;76186;47.590;19.194;2024-02-14T00:23:28;100306.50;;;0.47;86.35
85746;BME280;76186;47.590;19.194;2024-02-14T00:24:29;100302.75;;;0.36;86.23
85746;BME280;76186;47.590;19.194;2024-02-14T00:25:30;100306.50;;;0.17;86.80
85746;BME280;76186;47.590;19.194;2024-02-14T00:26:30;100312.13;;;0.09;87.34
85746;BME280;76186;47.590;19.194;2024-02-14T00:27:31;100308.06;;;0.06;87.07
85746;BME280;76186;47.590;19.194;2024-02-14T00:28:32;100306.03;;;0.02;87.72
85746;BME280;76186;47.590;19.194;2024-02-14T00:29:32;100302.06;;;-0.08;88.29
85746;BME280;76186;47.590;19.194;2024-02-14T00:30:34;100309.84;;;-0.06;88.29
85746;BME280;76186;47.590;19.194;2024-02-14T00:31:35;100300.13;;;-0.01;88.29
85746;BME280;76186;47.590;19.194;2024-02-14T00:32:35;100309.75;;;0.00;88.20
85746;BME280;76186;47.590;19.194;2024-02-14T00:33:36;100299.31;;;-0.01;87.82
85746;BME280;76186;47.590;19.194;2024-02-14T00:34:37;100309.09;;;0.05;88.24
85746;BME280;76186;47.590;19.194;2024-02-14T00:35:37;100308.72;;;0.02;88.04
85746;BME280;76186;47.590;19.194;2024-02-14T00:36:38;100312.31;;;-0.05;87.64
85746;BME280;76186;47.590;19.194;2024-02-14T00:37:38;100314.00;;;-0.10;88.34
85746;BME280;76186;47.590;19.194;2024-02-14T00:38:39;100318.53;;;-0.11;88.18
85746;BME280;76186;47.590;19.194;2024-02-14T00:39:40;100318.16;;;-0.14;88.49
85746;BME280;76186;47.590;19.194;2024-02-14T00:40:41;100323.06;;;-0.11;88.39
85746;BME280;76186;47.590;19.194;2024-02-14T00:41:41;100315.09;;;0.00;88.15
85746;BME280;76186;47.590;19.194;2024-02-14T00:42:42;100322.31;;;0.18;87.52
85746;BME280;76186;47.590;19.194;2024-02-14T00:43:42;100320.00;;;0.22;87.39
85746;BME280;76186;47.590;19.194;2024-02-14T00:44:43;100317.59;;;0.32;86.30
85746;BME280;76186;47.590;19.194;2024-02-14T00:45:44;100321.31;;;0.31;86.87
85746;BME280;76186;47.590;19.194;2024-02-14T00:46:44;100324.69;;;0.26;86.77
85746;BME280;76186;47.590;19.194;2024-02-14T00:47:45;100316.78;;;0.31;86.73
85746;BME280;76186;47.590;19.194;2024-02-14T00:48:45;100327.16;;;0.28;86.54
85746;BME280;76186;47.590;19.194;2024-02-14T00:49:46;100324.31;;;0.23;86.63
85746;BME280;76186;47.590;19.194;2024-02-14T00:50:47;100324.78;;;0.20;86.66
85746;BME280;76186;47.590;19.194;2024-02-14T00:51:47;100324.47;;;0.10;87.01
85746;BME280;76186;47.590;19.194;2024-02-14T00:52:48;100321.66;;;0.05;87.69
85746;BME280;76186;47.590;19.194;2024-02-14T00:53:49;100326.28;;;-0.03;87.65
85746;BME280;76186;47.590;19.194;2024-02-14T00:54:49;100322.69;;;-0.15;87.60
85746;BME280;76186;47.590;19.194;2024-02-14T00:55:50;100324.34;;;-0.14;88.01
85746;BME280;76186;47.590;19.194;2024-02-14T00:56:51;100322.09;;;-0.17;87.45
85746;BME280;76186;47.590;19.194;2024-02-14T00:57:52;100324.47;;;-0.27;88.25
85746;BME280;76186;47.590;19.194;2024-02-14T00:58:53;100326.47;;;-0.22;88.16
85746;BME280;76186;47.590;19.194;2024-02-14T00:59:54;100328.47;;;-0.18;88.35
85746;BME280;76186;47.590;19.194;2024-02-14T01:00:57;100323.63;;;-0.27;88.03
85746;BME280;76186;47.590;19.194;2024-02-14T01:01:57;100320.25;;;-0.35;88.13
85746;BME280;76186;47.590;19.194;2024-02-14T01:02:58;100326.19;;;-0.32;88.87
85746;BME280;76186;47.590;19.194;2024-02-14T01:03:59;100327.13;;;-0.27;88.37
85746;BME280;76186;47.590;19.194;2024-02-14T01:04:59;100330.72;;;-0.33;88.60
85746;BME280;76186;47.590;19.194;2024-02-14T01:06:00;100326.19;;;-0.32;88.63
85746;BME280;76186;47.590;19.194;2024-02-14T01:07:01;100330.72;;;-0.33;88.55
85746;BME280;76186;47.590;19.194;2024-02-14T01:08:01;100324.47;;;-0.27;88.91
85746;BME280;76186;47.590;19.194;2024-02-14T01:09:02;100326.56;;;-0.29;87.93
85746;BME280;76186;47.590;19.194;2024-02-14T01:10:03;100328.91;;;-0.39;88.53
85746;BME280;76186;47.590;19.194;2024-02-14T01:11:04;100333.06;;;-0.43;88.47
85746;BME280;76186;47.590;19.194;2024-02-14T01:12:05;100333.22;;;-0.38;89.01
85746;BME280;76186;47.590;19.194;2024-02-14T01:13:05;100333.97;;;-0.31;88.72
85746;BME280;76186;47.590;19.194;2024-02-14T01:14:06;100337.69;;;-0.32;88.84
85746;BME280;76186;47.590;19.194;2024-02-14T01:15:07;100330.72;;;-0.33;88.96
85746;BME280;76186;47.590;19.194;2024-02-14T01:16:08;100333.59;;;-0.35;89.06
85746;BME280;76186;47.590;19.194;2024-02-14T01:17:09;100324.16;;;-0.37;89.16
85746;BME280;76186;47.590;19.194;2024-02-14T01:18:10;100324.94;;;-0.30;89.37
85746;BME280;76186;47.590;19.194;2024-02-14T01:19:11;100329.69;;;-0.32;89.30
85746;BME280;76186;47.590;19.194;2024-02-14T01:20:11;100324.13;;;-0.30;89.59
85746;BME280;76186;47.590;19.194;2024-02-14T01:21:12;100328.69;;;-0.38;89.26
85746;BME280;76186;47.590;19.194;2024-02-14T01:22:13;100323.78;;;-0.41;89.61
85746;BME280;76186;47.590;19.194;2024-02-14T01:23:16;100323.41;;;-0.44;89.52
85746;BME280;76186;47.590;19.194;2024-02-14T01:24:17;100318.22;;;-0.39;89.73
85746;BME280;76186;47.590;19.194;2024-02-14T01:25:17;100318.75;;;-0.30;89.58
85746;BME280;76186;47.590;19.194;2024-02-14T01:26:18;100325.38;;;-0.33;89.64
85746;BME280;76186;47.590;19.194;2024-02-14T01:27:18;100324.31;;;-0.32;89.51
85746;BME280;76186;47.590;19.194;2024-02-14T01:28:19;100325.22;;;-0.38;89.61
85746;BME280;76186;47.590;19.194;2024-02-14T01:29:20;100324.47;;;-0.27;89.36
85746;BME280;76186;47.590;19.194;2024-02-14T01:30:20;100324.31;;;-0.32;88.92
85746;BME280;76186;47.590;19.194;2024-02-14T01:31:21;100324.16;;;-0.37;88.98
85746;BME280;76186;47.590;19.194;2024-02-14T01:32:22;100327.00;;;-0.32;89.31
85746;BME280;76186;47.590;19.194;2024-02-14T01:33:23;100316.44;;;-0.27;88.82
85746;BME280;76186;47.590;19.194;2024-02-14T01:34:24;100323.72;;;-0.34;88.90
85746;BME280;76186;47.590;19.194;2024-02-14T01:35:24;100321.78;;;-0.45;88.70
85746;BME280;76186;47.590;19.194;2024-02-14T01:36:26;100314.78;;;-0.46;89.08
85746;BME280;76186;47.590;19.194;2024-02-14T01:37:27;100326.13;;;-0.51;89.40
85746;BME280;76186;47.590;19.194;2024-02-14T01:38:29;100324.13;;;-0.55;89.66
85746;BME280;76186;47.590;19.194;2024-02-14T01:39:35;100328.56;;;-0.68;89.21
85746;BME280;76186;47.590;19.194;2024-02-14T01:40:36;100326.38;;;-0.77;89.58
85746;BME280;76186;47.590;19.194;2024-02-14T01:41:37;100334.44;;;-0.84;90.17
85746;BME280;76186;47.590;19.194;2024-02-14T01:42:38;100332.44;;;-0.88;89.93
85746;BME280;76186;47.590;19.194;2024-02-14T01:43:39;100329.22;;;-0.97;90.19
85746;BME280;76186;47.590;19.194;2024-02-14T01:44:40;100330.69;;;-1.01;90.50
85746;BME280;76186;47.590;19.194;2024-02-14T01:45:40;100331.06;;;-0.73;90.54
85746;BME280;76186;47.590;19.194;2024-02-14T01:46:42;100339.28;;;-0.74;90.75
85746;BME280;76186;47.590;19.194;2024-02-14T01:47:43;100334.13;;;-0.69;90.29
85746;BME280;76186;47.590;19.194;2024-02-14T01:48:43;100327.56;;;-0.73;90.33
85746;BME280;76186;47.590;19.194;2024-02-14T01:49:45;100328.41;;;-0.73;90.29
85746;BME280;76186;47.590;19.194;2024-02-14T01:50:45;100328.22;;;-0.78;90.18
85746;BME280;76186;47.590;19.194;2024-02-14T01:51:46;100323.97;;;-0.85;90.42
85746;BME280;76186;47.590;19.194;2024-02-14T01:52:47;100330.13;;;-0.85;90.81
85746;BME280;76186;47.590;19.194;2024-02-14T01:53:48;100330.72;;;-0.83;90.87
85746;BME280;76186;47.590;19.194;2024-02-14T01:54:49;100328.06;;;-0.83;90.88
85746;BME280;76186;47.590;19.194;2024-02-14T01:55:49;100328.06;;;-0.83;91.27
85746;BME280;76186;47.590;19.194;2024-02-14T01:56:50;100327.03;;;-0.82;91.26
85746;BME280;76186;47.590;19.194;2024-02-14T01:57:51;100333.78;;;-0.79;91.34
85746;BME280;76186;47.590;19.194;2024-02-14T01:58:52;100329.88;;;-0.77;90.92
85746;BME280;76186;47.590;19.194;2024-02-14T01:59:54;100330.69;;;-0.76;91.93
85746;BME280;76186;47.590;19.194;2024-02-14T02:00:56;100336.56;;;-0.68;91.09
85746;BME280;76186;47.590;19.194;2024-02-14T02:01:59;100324.28;;;-0.50;91.09
85746;BME280;76186;47.590;19.194;2024-02-14T02:03:00;100331.59;;;-0.39;90.37
85746;BME280;76186;47.590;19.194;2024-02-14T02:04:01;100337.97;;;-0.40;90.67
85746;BME280;76186;47.590;19.194;2024-02-14T02:05:02;100336.34;;;-0.23;89.82
85746;BME280;76186;47.590;19.194;2024-02-14T02:06:05;100345.84;;;-0.27;89.94
85746;BME280;76186;47.590;19.194;2024-02-14T02:07:06;100337.97;;;-0.22;89.79
85746;BME280;76186;47.590;19.194;2024-02-14T02:08:08;100340.38;;;-0.32;89.61
85746;BME280;76186;47.590;19.194;2024-02-14T02:09:10;100342.28;;;-0.39;90.10
85746;BME280;76186;47.590;19.194;2024-02-14T02:10:10;100341.50;;;-0.46;90.19
85746;BME280;76186;47.590;19.194;2024-02-14T02:11:13;100339.72;;;-0.52;90.42
85746;BME280;76186;47.590;19.194;2024-02-14T02:12:14;100342.38;;;-0.52;90.65
85746;BME280;76186;47.590;19.194;2024-02-14T02:13:15;100342.22;;;-0.57;90.04
85746;BME280;76186;47.590;19.194;2024-02-14T02:14:16;100348.16;;;-0.55;90.22
85746;BME280;76186;47.590;19.194;2024-02-14T02:15:17;100346.19;;;-0.60;90.46
85746;BME280;76186;47.590;19.194;2024-02-14T02:16:18;100348.69;;;-0.65;90.59
85746;BME280;76186;47.590;19.194;2024-02-14T02:17:19;100345.66;;;-0.75;89.92
85746;BME280;76186;47.590;19.194;2024-02-14T02:18:21;100348.38;;;-0.82;90.77
85746;BME280;76186;47.590;19.194;2024-02-14T02:19:22;100344.84;;;-0.76;91.02
85746;BME280;76186;47.590;19.194;2024-02-14T02:20:23;100349.75;;;-0.48;90.88
85746;BME280;76186;47.590;19.194;2024-02-14T02:21:24;100346.03;;;-0.47;90.20
85746;BME280;76186;47.590;19.194;2024-02-14T02:22:24;100350.34;;;-0.46;90.35
85746;BME280;76186;47.590;19.194;2024-02-14T02:23:25;100355.63;;;-0.39;90.48
85746;BME280;76186;47.590;19.194;2024-02-14T02:24:25;100348.06;;;-0.42;90.00
85746;BME280;76186;47.590;19.194;2024-02-14T02:25:26;100352.97;;;-0.39;89.52
85746;BME280;76186;47.590;19.194;2024-02-14T02:26:27;100353.78;;;-0.39;89.31
85746;BME280;76186;47.590;19.194;2024-02-14T02:27:28;100356.69;;;-0.40;89.10
85746;BME280;76186;47.590;19.194;2024-02-14T02:28:28;100355.31;;;-0.49;89.53
85746;BME280;76186;47.590;19.194;2024-02-14T02:29:29;100355.16;;;-0.54;89.21
85746;BME280;76186;47.590;19.194;2024-02-14T02:30:29;100351.59;;;-0.48;89.72
85746;BME280;76186;47.590;19.194;2024-02-14T02:31:30;100352.16;;;-0.40;89.23
85746;BME280;76186;47.590;19.194;2024-02-14T02:32:31;100357.97;;;-0.49;89.15
85746;BME280;76186;47.590;19.194;2024-02-14T02:33:32;100357.16;;;-0.50;89.29
85746;BME280;76186;47.590;19.194;2024-02-14T02:34:32;100356.78;;;-0.53;89.40
85746;BME280;76186;47.590;19.194;2024-02-14T02:35:34;100353.91;;;-0.52;89.46
85746;BME280;76186;47.590;19.194;2024-02-14T02:36:34;100350.16;;;-0.69;89.51
85746;BME280;76186;47.590;19.194;2024-02-14T02:37:36;100353.03;;;-0.71;90.28
85746;BME280;76186;47.590;19.194;2024-02-14T02:38:37;100355.75;;;-0.77;90.19
85746;BME280;76186;47.590;19.194;2024-02-14T02:39:37;100350.63;;;-0.79;90.81
85746;BME280;76186;47.590;19.194;2024-02-14T02:40:38;100354.47;;;-0.68;90.93
85746;BME280;76186;47.590;19.194;2024-02-14T02:41:39;100356.03;;;-0.60;90.55
85746;BME280;76186;47.590;19.194;2024-02-14T02:42:39;100357.22;;;-0.56;89.99
85746;BME280;76186;47.590;19.194;2024-02-14T02:43:40;100349.72;;;-0.66;90.32
85746;BME280;76186;47.590;19.194;2024-02-14T02:44:40;100354.50;;;-0.75;90.85
85746;BME280;76186;47.590;19.194;2024-02-14T02:45:42;100362.34;;;-0.80;91.26
85746;BME280;76186;47.590;19.194;2024-02-14T02:46:44;100349.41;;;-0.83;90.91
85746;BME280;76186;47.590;19.194;2024-02-14T02:47:46;100357.28;;;-0.88;91.17
85746;BME280;76186;47.590;19.194;2024-02-14T02:48:48;100358.16;;;-0.94;90.81
85746;BME280;76186;47.590;19.194;2024-02-14T02:49:49;100361.25;;;-0.97;91.78
85746;BME280;76186;47.590;19.194;2024-02-14T02:50:50;100365.81;;;-1.04;91.86
85746;BME280;76186;47.590;19.194;2024-02-14T02:51:51;100364.94;;;-0.98;91.52
85746;BME280;76186;47.590;19.194;2024-02-14T02:52:52;100369.88;;;-0.95;91.60
85746;BME280;76186;47.590;19.194;2024-02-14T02:53:54;100371.69;;;-0.89;90.89
85746;BME280;76186;47.590;19.194;2024-02-14T02:54:54;100366.97;;;-0.93;91.27
85746;BME280;76186;47.590;19.194;2024-02-14T02:55:55;100374.00;;;-0.99;90.70
85746;BME280;76186;47.590;19.194;2024-02-14T02:56:57;100373.34;;;-0.94;90.66
85746;BME280;76186;47.590;19.194;2024-02-14T02:57:59;100374.78;;;-0.92;90.73
85746;BME280;76186;47.590;19.194;2024-02-14T02:58:59;100375.59;;;-0.91;91.09
85746;BME280;76186;47.590;19.194;2024-02-14T03:00:03;100376.22;;;-0.96;91.05
85746;BME280;76186;47.590;19.194;2024-02-14T03:01:08;100376.81;;;-0.87;90.46
85746;BME280;76186;47.590;19.194;2024-02-14T03:02:12;100370.47;;;-0.93;90.63
85746;BME280;76186;47.590;19.194;2024-02-14T03:03:13;100374.50;;;-0.84;90.63
85746;BME280;76186;47.590;19.194;2024-02-14T03:04:13;100376.56;;;-0.86;90.48
85746;BME280;76186;47.590;19.194;2024-02-14T03:05:15;100376.41;;;-0.91;90.23
85746;BME280;76186;47.590;19.194;2024-02-14T03:06:20;100369.44;;;-0.92;90.10
85746;BME280;76186;47.590;19.194;2024-02-14T03:07:20;100367.78;;;-0.93;90.41
85746;BME280;76186;47.590;19.194;2024-02-14T03:08:23;100374.00;;;-0.99;90.77
85746;BME280;76186;47.590;19.194;2024-02-14T03:09:25;100376.06;;;-1.01;90.97
85746;BME280;76186;47.590;19.194;2024-02-14T03:10:28;100375.63;;;-0.98;90.37
85746;BME280;76186;47.590;19.194;2024-02-14T03:11:30;100377.69;;;-1.00;90.40
85746;BME280;76186;47.590;19.194;2024-02-14T03:12:30;100374.38;;;-0.95;90.00
85746;BME280;76186;47.590;19.194;2024-02-14T03:13:32;100372.34;;;-1.00;89.74
85746;BME280;76186;47.590;19.194;2024-02-14T03:14:33;100374.66;;;-1.10;89.91
85746;BME280;76186;47.590;19.194;2024-02-14T03:15:34;100373.72;;;-1.22;90.81
85746;BME280;76186;47.590;19.194;2024-02-14T03:16:36;100379.09;;;-1.29;90.89
85746;BME280;76186;47.590;19.194;2024-02-14T03:17:37;100380.56;;;-1.33;91.45
85746;BME280;76186;47.590;19.194;2024-02-14T03:18:38;100384.47;;;-1.36;91.36
85746;BME280;76186;47.590;19.194;2024-02-14T03:19:40;100383.84;;;-1.38;90.87
85746;BME280;76186;47.590;19.194;2024-02-14T03:20:40;100389.41;;;-1.39;91.12
85746;BME280;76186;47.590;19.194;2024-02-14T03:21:41;100394.31;;;-1.36;91.60
85746;BME280;76186;47.590;19.194;2024-02-14T03:22:44;100394.72;;;-1.32;91.48
85746;BME280;76186;47.590;19.194;2024-02-14T03:23:47;100397.06;;;-1.11;91.56
85746;BME280;76186;47.590;19.194;2024-02-14T03:24:48;100390.78;;;-0.92;90.69
85746;BME280;76186;47.590;19.194;2024-02-14T03:25:49;100394.16;;;-1.03;90.38
85746;BME280;76186;47.590;19.194;2024-02-14T03:26:49;100393.50;;;-0.98;90.30
85746;BME280;76186;47.590;19.194;2024-02-14T03:27:51;100397.06;;;-1.11;90.14
85746;BME280;76186;47.590;19.194;2024-02-14T03:28:53;100392.31;;;-1.09;90.34
85746;BME280;76186;47.590;19.194;2024-02-14T03:29:54;100400.31;;;-1.03;90.60
85746;BME280;76186;47.590;19.194;2024-02-14T03:30:58;100391.31;;;-1.15;90.05
85746;BME280;76186;47.590;19.194;2024-02-14T03:31:59;100396.16;;;-0.98;90.48
85746;BME280;76186;47.590;19.194;2024-02-14T03:33:05;100397.00;;;-0.98;89.90
85746;BME280;76186;47.590;19.194;2024-02-14T03:34:05;100400.09;;;-1.01;89.94
85746;BME280;76186;47.590;19.194;2024-02-14T03:35:06;100405.47;;;-1.08;90.12
85746;BME280;76186;47.590;19.194;2024-02-14T03:36:07;100411.06;;;-1.16;90.44
85746;BME280;76186;47.590;19.194;2024-02-14T03:37:10;100406.28;;;-1.07;90.63
85746;BME280;76186;47.590;19.194;2024-02-14T03:38:10;100412.19;;;-0.98;90.31
85746;BME280;76186;47.590;19.194;2024-02-14T03:39:11;100409.31;;;-0.97;90.45
85746;BME280;76186;47.590;19.194;2024-02-14T03:40:12;100414.19;;;-0.87;89.90
85746;BME280;76186;47.590;19.194;2024-02-14T03:41:12;100412.19;;;-0.98;89.58
85746;BME280;76186;47.590;19.194;2024-02-14T03:42:16;100415.84;;;-0.93;90.01
85746;BME280;76186;47.590;19.194;2024-02-14T03:43:17;100414.53;;;-0.84;89.57
85746;BME280;76186;47.590;19.194;2024-02-14T03:44:17;100410.53;;;-0.93;89.33
85746;BME280;76186;47.590;19.194;2024-02-14T03:45:18;100403.72;;;-0.89;89.45
85746;BME280;76186;47.590;19.194;2024-02-14T03:46:19;100408.66;;;-0.61;89.16
85746;BME280;76186;47.590;19.194;2024-02-14T03:47:21;100403.78;;;-0.71;89.12
85746;BME280;76186;47.590;19.194;2024-02-14T03:48:23;100404.59;;;-0.70;89.09
85746;BME280;76186;47.590;19.194;2024-02-14T03:49:24;100415.75;;;-0.80;89.12
85746;BME280;76186;47.590;19.194;2024-02-14T03:50:26;100408.25;;;-0.64;89.13
85746;BME280;76186;47.590;19.194;2024-02-14T03:51:26;100403.13;;;-0.41;88.67
85746;BME280;76186;47.590;19.194;2024-02-14T03:52:27;100408.03;;;-0.38;87.91
85746;BME280;76186;47.590;19.194;2024-02-14T03:53:28;100416.66;;;-0.36;87.89
85746;BME280;76186;47.590;19.194;2024-02-14T03:54:29;100421.50;;;-0.26;87.40
85746;BME280;76186;47.590;19.194;2024-02-14T03:55:29;100417.88;;;-0.32;87.71
85746;BME280;76186;47.590;19.194;2024-02-14T03:56:31;100425.75;;;-0.19;87.15
85746;BME280;76186;47.590;19.194;2024-02-14T03:57:32;100417.72;;;-0.19;86.84
85746;BME280;76186;47.590;19.194;2024-02-14T03:58:35;100421.84;;;-0.41;87.80
85746;BME280;76186;47.590;19.194;2024-02-14T03:59:37;100411.25;;;-0.54;87.73
85746;BME280;76186;47.590;19.194;2024-02-14T04:00:39;100425.50;;;-0.60;88.78
85746;BME280;76186;47.590;19.194;2024-02-14T04:01:44;100418.16;;;-0.72;88.38
85746;BME280;76186;47.590;19.194;2024-02-14T04:02:45;100419.88;;;-0.84;88.70
85746;BME280;76186;47.590;19.194;2024-02-14T04:03:49;100433.50;;;-0.92;89.17
85746;BME280;76186;47.590;19.194;2024-02-14T04:04:49;100427.78;;;-0.95;89.31
85746;BME280;76186;47.590;19.194;2024-02-14T04:05:50;100425.56;;;-1.05;89.61
85746;BME280;76186;47.590;19.194;2024-02-14T04:06:50;100431.94;;;-1.06;90.12
85746;BME280;76186;47.590;19.194;2024-02-14T04:07:51;100438.03;;;-0.92;90.03
85746;BME280;76186;47.590;19.194;2024-02-14T04:08:53;100432.56;;;-0.73;89.77
85746;BME280;76186;47.590;19.194;2024-02-14T04:09:53;100439.47;;;-0.58;89.35
85746;BME280;76186;47.590;19.194;2024-02-14T04:10:54;100434.81;;;-0.45;88.26
85746;BME280;76186;47.590;19.194;2024-02-14T04:11:55;100438.22;;;-0.31;87.90
85746;BME280;76186;47.590;19.194;2024-02-14T04:12:55;100440.94;;;-0.38;87.42
85746;BME280;76186;47.590;19.194;2024-02-14T04:13:56;100440.75;;;-0.68;88.23
85746;BME280;76186;47.590;19.194;2024-02-14T04:14:57;100445.31;;;-0.75;88.02
85746;BME280;76186;47.590;19.194;2024-02-14T04:15:57;100440.81;;;-0.81;88.34
85746;BME280;76186;47.590;19.194;2024-02-14T04:16:58;100446.56;;;-0.77;89.37
85746;BME280;76186;47.590;19.194;2024-02-14T04:17:58;100443.28;;;-0.79;88.94
85746;BME280;76186;47.590;19.194;2024-02-14T04:19:01;100445.22;;;-0.93;88.47
85746;BME280;76186;47.590;19.194;2024-02-14T04:20:01;100451.84;;;-1.02;89.04
85746;BME280;76186;47.590;19.194;2024-02-14T04:21:02;100457.78;;;-1.00;89.79
85746;BME280;76186;47.590;19.194;2024-02-14T04:22:04;100449.41;;;-1.10;89.41
85746;BME280;76186;47.590;19.194;2024-02-14T04:23:06;100456.66;;;-1.17;90.17
85746;BME280;76186;47.590;19.194;2024-02-14T04:24:07;100466.53;;;-1.24;89.55
85746;BME280;76186;47.590;19.194;2024-02-14T04:25:08;100457.91;;;-1.20;89.34
85746;BME280;76186;47.590;19.194;2024-02-14T04:26:09;100464.50;;;-1.29;89.33
85746;BME280;76186;47.590;19.194;2024-02-14T04:27:09;100470.88;;;-1.37;89.22
85746;BME280;76186;47.590;19.194;2024-02-14T04:28:10;100476.81;;;-1.34;89.75
85746;BME280;76186;47.590;19.194;2024-02-14T04:29:12;100470.06;;;-1.37;88.99
85746;BME280;76186;47.590;19.194;2024-02-14T04:30:13;100470.72;;;-1.48;89.38
85746;BME280;76186;47.590;19.194;2024-02-14T04:31:14;100471.19;;;-1.71;90.70
85746;BME280;76186;47.590;19.194;2024-02-14T04:32:15;100477.56;;;-1.79;90.94
85746;BME280;76186;47.590;19.194;2024-02-14T04:33:15;100475.31;;;-1.88;91.51
85746;BME280;76186;47.590;19.194;2024-02-14T04:34:16;100472.47;;;-1.93;91.25
85746;BME280;76186;47.590;19.194;2024-02-14T04:35:19;100484.38;;;-2.02;92.23
85746;BME280;76186;47.590;19.194;2024-02-14T04:36:20;100468.16;;;-2.01;92.66
85746;BME280;76186;47.590;19.194;2024-02-14T04:37:23;100466.31;;;-2.00;92.74
85746;BME280;76186;47.590;19.194;2024-02-14T04:38:23;100467.13;;;-1.93;92.66
85746;BME280;76186;47.590;19.194;2024-02-14T04:39:24;100473.88;;;-1.97;92.30
85746;BME280;76186;47.590;19.194;2024-02-14T04:40:25;100473.47;;;-2.01;93.24
85746;BME280;76186;47.590;19.194;2024-02-14T04:41:25;100465.91;;;-1.91;92.79
85746;BME280;76186;47.590;19.194;2024-02-14T04:42:26;100473.28;;;-1.93;93.27
85746;BME280;76186;47.590;19.194;2024-02-14T04:43:26;100471.22;;;-1.84;93.38
85746;BME280;76186;47.590;19.194;2024-02-14T04:44:30;100481.69;;;-1.76;93.73
85746;BME280;76186;47.590;19.194;2024-02-14T04:45:31;100482.25;;;-1.67;93.24
85746;BME280;76186;47.590;19.194;2024-02-14T04:46:32;100475.28;;;-1.62;92.98
85746;BME280;76186;47.590;19.194;2024-02-14T04:47:35;100478.53;;;-1.60;93.33
85746;BME280;76186;47.590;19.194;2024-02-14T04:48:36;100480.19;;;-1.59;93.71
85746;BME280;76186;47.590;19.194;2024-02-14T04:49:39;100475.06;;;-1.67;92.73
85746;BME280;76186;47.590;19.194;2024-02-14T04:50:40;100477.13;;;-1.69;92.88
85746;BME280;76186;47.590;19.194;2024-02-14T04:51:41;100479.00;;;-1.76;92.50
85746;BME280;76186;47.590;19.194;2024-02-14T04:52:42;100485.16;;;-1.82;92.71
85746;BME280;76186;47.590;19.194;2024-02-14T04:53:42;100484.34;;;-1.89;93.16
85746;BME280;76186;47.590;19.194;2024-02-14T04:54:43;100491.94;;;-1.86;93.63
85746;BME280;76186;47.590;19.194;2024-02-14T04:55:43;100490.91;;;-1.79;92.68
85746;BME280;76186;47.590;19.194;2024-02-14T04:56:44;100491.31;;;-1.82;92.94
85746;BME280;76186;47.590;19.194;2024-02-14T04:57:45;100504.44;;;-1.87;92.74
85746;BME280;76186;47.590;19.194;2024-02-14T04:58:46;100494.19;;;-1.96;92.78
85746;BME280;76186;47.590;19.194;2024-02-14T04:59:46;100492.38;;;-2.02;93.20
85746;BME280;76186;47.590;19.194;2024-02-14T05:00:47;100497.50;;;-2.08;92.96
85746;BME280;76186;47.590;19.194;2024-02-14T05:01:48;100496.25;;;-2.12;93.32
85746;BME280;76186;47.590;19.194;2024-02-14T05:02:48;100493.38;;;-2.17;93.31
85746;BME280;76186;47.590;19.194;2024-02-14T05:03:49;100499.13;;;-2.20;93.13
85746;BME280;76186;47.590;19.194;2024-02-14T05:04:50;100493.59;;;-2.25;93.06
85746;BME280;76186;47.590;19.194;2024-02-14T05:05:51;100502.81;;;-2.27;93.75
85746;BME280;76186;47.590;19.194;2024-02-14T05:06:51;100495.84;;;-2.28;93.64
85746;BME280;76186;47.590;19.194;2024-02-14T05:07:52;100497.88;;;-2.30;94.25
85746;BME280;76186;47.590;19.194;2024-02-14T05:08:54;100498.94;;;-2.31;93.87
85746;BME280;76186;47.590;19.194;2024-02-14T05:09:54;100504.84;;;-2.29;94.46
85746;BME280;76186;47.590;19.194;2024-02-14T05:10:56;100497.88;;;-2.30;94.22
85746;BME280;76186;47.590;19.194;2024-02-14T05:11:57;100504.25;;;-2.31;93.97
85746;BME280;76186;47.590;19.194;2024-02-14T05:12:58;100503.00;;;-2.29;94.70
85746;BME280;76186;47.590;19.194;2024-02-14T05:13:59;100505.28;;;-2.32;94.83
85746;BME280;76186;47.590;19.194;2024-02-14T05:15:02;100510.19;;;-2.36;94.27